sensor_id;sensor_type;location;lat;lon;timestamp;P1;durP1;ratioP1;P2;durP2;ratioP2
49241;SDS011;35079;52.704;13.814;2022-07-22T00:01:31;11.57;;;8.85;;
49241;SDS011;35079;52.704;13.814;2022-07-22T00:03:56;11.70;;;9.80;;
49241;SDS011;35079;52.704;13.814;2022-07-22T00:06:22;9.90;;;8.90;;
49241;SDS011;35079;52.704;13.814;2022-07-22T00:08:48;10.43;;;9.18;;
49241;SDS011;35079;52.704;13.814;2022-07-22T00:11:14;11.48;;;10.38;;
49241;SDS011;35079;52.704;13.814;2022-07-22T00:13:39;10.95;;;9.95;;
49241;SDS011;35079;52.704;13.814;2022-07-22T00:16:05;11.52;;;9.90;;
49241;SDS011;35079;52.704;13.814;2022-07-22T00:18:31;10.50;;;9.50;;
49241;SDS011;35079;52.704;13.814;2022-07-22T00:20:57;10.90;;;9.77;;
49241;SDS011;35079;52.704;13.814;2022-07-22T00:23:23;11.90;;;10.32;;
49241;SDS011;35079;52.704;13.814;2022-07-22T00:25:48;11.77;;;10.00;;
49241;SDS011;35079;52.704;13.814;2022-07-22T00:28:14;10.05;;;9.02;;
49241;SDS011;35079;52.704;13.814;2022-07-22T00:30:43;9.95;;;9.00;;
49241;SDS011;35079;52.704;13.814;2022-07-22T00:33:08;12.35;;;9.77;;
49241;SDS011;35079;52.704;13.814;2022-07-22T00:35:34;10.73;;;9.70;;
49241;SDS011;35079;52.704;13.814;2022-07-22T00:38:00;10.32;;;9.23;;
49241;SDS011;35079;52.704;13.814;2022-07-22T00:40:26;9.82;;;8.85;;
49241;SDS011;35079;52.704;13.814;2022-07-22T00:42:53;10.80;;;9.00;;
49241;SDS011;35079;52.704;13.814;2022-07-22T00:45:19;11.07;;;9.38;;
49241;SDS011;35079;52.704;13.814;2022-07-22T00:47:44;11.25;;;9.93;;
49241;SDS011;35079;52.704;13.814;2022-07-22T00:50:12;10.93;;;9.82;;
49241;SDS011;35079;52.704;13.814;2022-07-22T00:52:40;10.38;;;9.27;;
49241;SDS011;35079;52.704;13.814;2022-07-22T00:55:06;11.35;;;10.15;;
49241;SDS011;35079;52.704;13.814;2022-07-22T00:57:33;11.48;;;10.30;;
49241;SDS011;35079;52.704;13.814;2022-07-22T00:59:59;13.55;;;10.57;;
49241;SDS011;35079;52.704;13.814;2022-07-22T01:02:25;12.10;;;10.80;;
49241;SDS011;35079;52.704;13.814;2022-07-22T01:04:51;10.93;;;9.82;;
49241;SDS011;35079;52.704;13.814;2022-07-22T01:07:17;11.40;;;10.27;;
49241;SDS011;35079;52.704;13.814;2022-07-22T01:09:43;10.63;;;9.52;;
49241;SDS011;35079;52.704;13.814;2022-07-22T01:12:10;9.77;;;8.77;;
49241;SDS011;35079;52.704;13.814;2022-07-22T01:14:36;13.55;;;9.25;;
49241;SDS011;35079;52.704;13.814;2022-07-22T01:17:02;11.18;;;10.07;;
49241;SDS011;35079;52.704;13.814;2022-07-22T01:19:28;11.88;;;10.68;;
49241;SDS011;35079;52.704;13.814;2022-07-22T01:21:54;11.77;;;10.07;;
49241;SDS011;35079;52.704;13.814;2022-07-22T01:24:19;11.90;;;10.70;;
49241;SDS011;35079;52.704;13.814;2022-07-22T01:26:45;11.68;;;10.48;;
49241;SDS011;35079;52.704;13.814;2022-07-22T01:29:11;12.68;;;11.07;;
49241;SDS011;35079;52.704;13.814;2022-07-22T01:31:37;11.13;;;9.98;;
49241;SDS011;35079;52.704;13.814;2022-07-22T01:34:02;11.40;;;10.20;;
49241;SDS011;35079;52.704;13.814;2022-07-22T01:36:28;12.25;;;10.15;;
49241;SDS011;35079;52.704;13.814;2022-07-22T01:38:54;14.23;;;9.43;;
49241;SDS011;35079;52.704;13.814;2022-07-22T01:41:20;10.60;;;9.13;;
49241;SDS011;35079;52.704;13.814;2022-07-22T01:43:49;10.00;;;9.00;;
49241;SDS011;35079;52.704;13.814;2022-07-22T01:46:14;11.75;;;9.38;;
49241;SDS011;35079;52.704;13.814;2022-07-22T01:48:41;11.23;;;10.02;;
49241;SDS011;35079;52.704;13.814;2022-07-22T01:51:07;11.20;;;9.30;;
49241;SDS011;35079;52.704;13.814;2022-07-22T01:53:33;11.43;;;9.90;;
49241;SDS011;35079;52.704;13.814;2022-07-22T01:56:02;10.73;;;9.73;;
49241;SDS011;35079;52.704;13.814;2022-07-22T01:58:28;11.27;;;10.18;;
49241;SDS011;35079;52.704;13.814;2022-07-22T02:00:53;12.63;;;9.77;;
49241;SDS011;35079;52.704;13.814;2022-07-22T02:03:19;12.88;;;10.35;;
49241;SDS011;35079;52.704;13.814;2022-07-22T02:05:45;12.48;;;10.07;;
49241;SDS011;35079;52.704;13.814;2022-07-22T02:08:11;15.80;;;10.50;;
49241;SDS011;35079;52.704;13.814;2022-07-22T02:10:38;14.73;;;10.13;;
49241;SDS011;35079;52.704;13.814;2022-07-22T02:13:04;11.45;;;10.18;;
49241;SDS011;35079;52.704;13.814;2022-07-22T02:15:30;12.85;;;9.80;;
49241;SDS011;35079;52.704;13.814;2022-07-22T02:17:56;9.88;;;8.65;;
49241;SDS011;35079;52.704;13.814;2022-07-22T02:20:22;10.45;;;8.60;;
49241;SDS011;35079;52.704;13.814;2022-07-22T02:22:47;9.27;;;8.27;;
49241;SDS011;35079;52.704;13.814;2022-07-22T02:25:14;11.60;;;7.55;;
49241;SDS011;35079;52.704;13.814;2022-07-22T02:27:40;9.77;;;8.10;;
49241;SDS011;35079;52.704;13.814;2022-07-22T02:30:07;9.65;;;6.75;;
49241;SDS011;35079;52.704;13.814;2022-07-22T02:32:34;8.30;;;6.90;;
49241;SDS011;35079;52.704;13.814;2022-07-22T02:35:00;7.28;;;6.32;;
49241;SDS011;35079;52.704;13.814;2022-07-22T02:37:25;7.47;;;6.18;;
49241;SDS011;35079;52.704;13.814;2022-07-22T02:39:51;8.10;;;6.38;;
49241;SDS011;35079;52.704;13.814;2022-07-22T02:42:17;6.43;;;5.68;;
49241;SDS011;35079;52.704;13.814;2022-07-22T02:44:42;7.50;;;5.85;;
49241;SDS011;35079;52.704;13.814;2022-07-22T02:47:08;7.00;;;6.30;;
49241;SDS011;35079;52.704;13.814;2022-07-22T02:49:34;8.85;;;6.40;;
49241;SDS011;35079;52.704;13.814;2022-07-22T02:52:00;8.05;;;6.00;;
49241;SDS011;35079;52.704;13.814;2022-07-22T02:54:25;6.10;;;5.32;;
49241;SDS011;35079;52.704;13.814;2022-07-22T02:56:51;7.03;;;5.88;;
49241;SDS011;35079;52.704;13.814;2022-07-22T02:59:17;6.68;;;5.60;;
49241;SDS011;35079;52.704;13.814;2022-07-22T03:01:42;6.35;;;5.60;;
49241;SDS011;35079;52.704;13.814;2022-07-22T03:04:08;6.85;;;6.15;;
49241;SDS011;35079;52.704;13.814;2022-07-22T03:06:34;6.32;;;5.47;;
49241;SDS011;35079;52.704;13.814;2022-07-22T03:09:00;7.93;;;5.22;;
49241;SDS011;35079;52.704;13.814;2022-07-22T03:11:25;9.30;;;5.85;;
49241;SDS011;35079;52.704;13.814;2022-07-22T03:13:51;6.10;;;5.35;;
49241;SDS011;35079;52.704;13.814;2022-07-22T03:16:17;5.93;;;4.88;;
49241;SDS011;35079;52.704;13.814;2022-07-22T03:18:42;6.68;;;5.43;;
49241;SDS011;35079;52.704;13.814;2022-07-22T03:21:08;8.45;;;5.82;;
49241;SDS011;35079;52.704;13.814;2022-07-22T03:23:33;5.57;;;4.78;;
49241;SDS011;35079;52.704;13.814;2022-07-22T03:25:59;5.65;;;4.82;;
49241;SDS011;35079;52.704;13.814;2022-07-22T03:28:25;6.90;;;5.53;;
49241;SDS011;35079;52.704;13.814;2022-07-22T03:30:52;6.82;;;5.28;;
49241;SDS011;35079;52.704;13.814;2022-07-22T03:33:18;5.88;;;4.97;;
49241;SDS011;35079;52.704;13.814;2022-07-22T03:35:43;7.32;;;5.00;;
49241;SDS011;35079;52.704;13.814;2022-07-22T03:38:09;6.68;;;5.47;;
49241;SDS011;35079;52.704;13.814;2022-07-22T03:40:35;6.60;;;5.28;;
49241;SDS011;35079;52.704;13.814;2022-07-22T03:43:00;7.47;;;5.22;;
49241;SDS011;35079;52.704;13.814;2022-07-22T03:45:26;7.97;;;5.47;;
49241;SDS011;35079;52.704;13.814;2022-07-22T03:47:51;6.40;;;5.35;;
49241;SDS011;35079;52.704;13.814;2022-07-22T03:50:19;6.35;;;5.40;;
49241;SDS011;35079;52.704;13.814;2022-07-22T03:52:45;7.57;;;5.95;;
49241;SDS011;35079;52.704;13.814;2022-07-22T03:55:12;5.88;;;5.28;;
49241;SDS011;35079;52.704;13.814;2022-07-22T03:57:37;5.88;;;5.30;;
49241;SDS011;35079;52.704;13.814;2022-07-22T04:00:04;7.95;;;5.45;;
49241;SDS011;35079;52.704;13.814;2022-07-22T04:02:30;10.88;;;5.47;;
49241;SDS011;35079;52.704;13.814;2022-07-22T04:04:56;8.10;;;5.60;;
49241;SDS011;35079;52.704;13.814;2022-07-22T04:07:22;7.40;;;5.30;;
49241;SDS011;35079;52.704;13.814;2022-07-22T04:09:47;6.10;;;5.18;;
49241;SDS011;35079;52.704;13.814;2022-07-22T04:12:13;6.28;;;5.50;;
49241;SDS011;35079;52.704;13.814;2022-07-22T04:14:39;6.60;;;5.47;;
49241;SDS011;35079;52.704;13.814;2022-07-22T04:17:04;8.02;;;5.63;;
49241;SDS011;35079;52.704;13.814;2022-07-22T04:19:30;7.07;;;5.60;;
49241;SDS011;35079;52.704;13.814;2022-07-22T04:21:56;8.85;;;5.72;;
49241;SDS011;35079;52.704;13.814;2022-07-22T04:24:21;6.85;;;6.15;;
49241;SDS011;35079;52.704;13.814;2022-07-22T04:26:47;7.85;;;6.00;;
49241;SDS011;35079;52.704;13.814;2022-07-22T04:29:13;6.97;;;6.10;;
49241;SDS011;35079;52.704;13.814;2022-07-22T04:31:39;5.97;;;5.35;;
49241;SDS011;35079;52.704;13.814;2022-07-22T04:34:05;9.60;;;5.68;;
49241;SDS011;35079;52.704;13.814;2022-07-22T04:36:30;6.22;;;5.68;;
49241;SDS011;35079;52.704;13.814;2022-07-22T04:38:56;8.07;;;5.90;;
49241;SDS011;35079;52.704;13.814;2022-07-22T04:41:22;8.40;;;5.93;;
49241;SDS011;35079;52.704;13.814;2022-07-22T04:43:48;6.90;;;5.95;;
49241;SDS011;35079;52.704;13.814;2022-07-22T04:46:13;7.60;;;5.78;;
49241;SDS011;35079;52.704;13.814;2022-07-22T04:48:45;8.18;;;6.60;;
49241;SDS011;35079;52.704;13.814;2022-07-22T04:51:11;7.28;;;6.03;;
49241;SDS011;35079;52.704;13.814;2022-07-22T04:53:37;7.47;;;6.70;;
49241;SDS011;35079;52.704;13.814;2022-07-22T04:56:19;8.07;;;6.43;;
49241;SDS011;35079;52.704;13.814;2022-07-22T04:58:45;8.18;;;7.00;;
49241;SDS011;35079;52.704;13.814;2022-07-22T05:01:11;7.85;;;7.10;;
49241;SDS011;35079;52.704;13.814;2022-07-22T05:03:37;9.35;;;7.03;;
49241;SDS011;35079;52.704;13.814;2022-07-22T05:06:04;8.10;;;6.85;;
49241;SDS011;35079;52.704;13.814;2022-07-22T05:08:29;9.48;;;6.88;;
49241;SDS011;35079;52.704;13.814;2022-07-22T05:10:55;7.93;;;7.13;;
49241;SDS011;35079;52.704;13.814;2022-07-22T05:13:30;9.93;;;8.00;;
49241;SDS011;35079;52.704;13.814;2022-07-22T05:16:02;10.95;;;7.97;;
49241;SDS011;35079;52.704;13.814;2022-07-22T05:18:28;9.57;;;7.35;;
49241;SDS011;35079;52.704;13.814;2022-07-22T05:20:54;9.55;;;8.00;;
49241;SDS011;35079;52.704;13.814;2022-07-22T05:23:20;9.57;;;7.22;;
49241;SDS011;35079;52.704;13.814;2022-07-22T05:25:46;8.10;;;7.00;;
49241;SDS011;35079;52.704;13.814;2022-07-22T05:32:00;8.57;;;6.97;;
49241;SDS011;35079;52.704;13.814;2022-07-22T05:34:24;11.27;;;7.95;;
49241;SDS011;35079;52.704;13.814;2022-07-22T05:36:51;8.82;;;7.40;;
49241;SDS011;35079;52.704;13.814;2022-07-22T05:46:07;10.30;;;8.10;;
49241;SDS011;35079;52.704;13.814;2022-07-22T05:55:10;8.85;;;7.85;;
49241;SDS011;35079;52.704;13.814;2022-07-22T05:57:36;8.75;;;7.53;;
49241;SDS011;35079;52.704;13.814;2022-07-22T06:03:10;11.00;;;8.63;;
49241;SDS011;35079;52.704;13.814;2022-07-22T06:05:35;13.00;;;10.00;;
49241;SDS011;35079;52.704;13.814;2022-07-22T06:08:01;11.75;;;9.90;;
49241;SDS011;35079;52.704;13.814;2022-07-22T06:10:37;8.35;;;7.55;;
49241;SDS011;35079;52.704;13.814;2022-07-22T06:13:03;11.05;;;8.88;;
49241;SDS011;35079;52.704;13.814;2022-07-22T06:15:32;11.43;;;10.07;;
49241;SDS011;35079;52.704;13.814;2022-07-22T06:18:24;11.65;;;10.43;;
49241;SDS011;35079;52.704;13.814;2022-07-22T06:20:50;10.13;;;8.93;;
49241;SDS011;35079;52.704;13.814;2022-07-22T06:23:17;12.13;;;9.68;;
49241;SDS011;35079;52.704;13.814;2022-07-22T06:25:43;13.02;;;9.85;;
49241;SDS011;35079;52.704;13.814;2022-07-22T06:28:35;9.95;;;8.95;;
49241;SDS011;35079;52.704;13.814;2022-07-22T06:34:23;11.02;;;9.25;;
49241;SDS011;35079;52.704;13.814;2022-07-22T06:37:05;11.45;;;10.20;;
49241;SDS011;35079;52.704;13.814;2022-07-22T06:39:42;11.45;;;10.25;;
49241;SDS011;35079;52.704;13.814;2022-07-22T06:45:35;10.50;;;8.90;;
49241;SDS011;35079;52.704;13.814;2022-07-22T06:48:01;14.93;;;11.90;;
49241;SDS011;35079;52.704;13.814;2022-07-22T06:50:51;12.40;;;10.75;;
49241;SDS011;35079;52.704;13.814;2022-07-22T06:53:17;10.95;;;9.52;;
49241;SDS011;35079;52.704;13.814;2022-07-22T06:55:50;12.07;;;9.52;;
49241;SDS011;35079;52.704;13.814;2022-07-22T06:58:19;12.68;;;10.68;;
49241;SDS011;35079;52.704;13.814;2022-07-22T07:01:01;12.00;;;9.10;;
49241;SDS011;35079;52.704;13.814;2022-07-22T07:03:27;9.20;;;8.30;;
49241;SDS011;35079;52.704;13.814;2022-07-22T07:05:52;10.93;;;9.02;;
49241;SDS011;35079;52.704;13.814;2022-07-22T07:08:18;13.23;;;9.77;;
49241;SDS011;35079;52.704;13.814;2022-07-22T07:10:44;13.27;;;9.68;;
49241;SDS011;35079;52.704;13.814;2022-07-22T07:13:09;10.57;;;8.43;;
49241;SDS011;35079;52.704;13.814;2022-07-22T07:15:35;8.32;;;7.47;;
49241;SDS011;35079;52.704;13.814;2022-07-22T07:18:01;8.07;;;6.80;;
49241;SDS011;35079;52.704;13.814;2022-07-22T07:20:27;8.95;;;6.82;;
49241;SDS011;35079;52.704;13.814;2022-07-22T07:22:53;6.50;;;5.85;;
49241;SDS011;35079;52.704;13.814;2022-07-22T07:25:19;7.85;;;5.85;;
49241;SDS011;35079;52.704;13.814;2022-07-22T07:27:46;6.65;;;6.05;;
49241;SDS011;35079;52.704;13.814;2022-07-22T07:30:12;6.78;;;6.05;;
49241;SDS011;35079;52.704;13.814;2022-07-22T07:32:38;6.90;;;6.20;;
49241;SDS011;35079;52.704;13.814;2022-07-22T07:35:04;7.43;;;5.60;;
49241;SDS011;35079;52.704;13.814;2022-07-22T07:37:31;7.18;;;5.68;;
49241;SDS011;35079;52.704;13.814;2022-07-22T07:39:58;6.18;;;5.60;;
49241;SDS011;35079;52.704;13.814;2022-07-22T07:42:24;7.05;;;6.35;;
49241;SDS011;35079;52.704;13.814;2022-07-22T07:44:51;6.28;;;5.68;;
49241;SDS011;35079;52.704;13.814;2022-07-22T07:47:16;8.35;;;6.47;;
49241;SDS011;35079;52.704;13.814;2022-07-22T07:49:46;6.50;;;5.47;;
49241;SDS011;35079;52.704;13.814;2022-07-22T07:52:13;7.00;;;6.32;;
49241;SDS011;35079;52.704;13.814;2022-07-22T07:54:39;6.57;;;5.40;;
49241;SDS011;35079;52.704;13.814;2022-07-22T07:57:06;5.70;;;5.10;;
49241;SDS011;35079;52.704;13.814;2022-07-22T07:59:32;6.93;;;5.63;;
49241;SDS011;35079;52.704;13.814;2022-07-22T08:01:58;5.90;;;5.30;;
49241;SDS011;35079;52.704;13.814;2022-07-22T08:04:23;5.40;;;4.80;;
49241;SDS011;35079;52.704;13.814;2022-07-22T08:06:49;5.85;;;5.35;;
49241;SDS011;35079;52.704;13.814;2022-07-22T08:09:15;8.75;;;5.93;;
49241;SDS011;35079;52.704;13.814;2022-07-22T08:11:41;5.80;;;5.25;;
49241;SDS011;35079;52.704;13.814;2022-07-22T08:14:06;6.28;;;4.57;;
49241;SDS011;35079;52.704;13.814;2022-07-22T08:16:32;5.03;;;4.53;;
49241;SDS011;35079;52.704;13.814;2022-07-22T08:18:58;4.88;;;4.47;;
49241;SDS011;35079;52.704;13.814;2022-07-22T08:21:23;4.15;;;3.78;;
49241;SDS011;35079;52.704;13.814;2022-07-22T08:23:50;4.25;;;3.85;;
49241;SDS011;35079;52.704;13.814;2022-07-22T08:26:17;6.90;;;4.50;;
49241;SDS011;35079;52.704;13.814;2022-07-22T08:28:43;4.93;;;4.38;;
49241;SDS011;35079;52.704;13.814;2022-07-22T08:31:09;4.95;;;4.47;;
49241;SDS011;35079;52.704;13.814;2022-07-22T08:33:34;8.18;;;4.75;;
49241;SDS011;35079;52.704;13.814;2022-07-22T08:36:00;5.07;;;4.57;;
49241;SDS011;35079;52.704;13.814;2022-07-22T08:38:26;5.80;;;4.93;;
49241;SDS011;35079;52.704;13.814;2022-07-22T08:40:55;6.53;;;5.68;;
49241;SDS011;35079;52.704;13.814;2022-07-22T08:43:21;5.80;;;3.97;;
49241;SDS011;35079;52.704;13.814;2022-07-22T08:45:48;6.05;;;4.38;;
49241;SDS011;35079;52.704;13.814;2022-07-22T08:48:14;4.63;;;4.18;;
49241;SDS011;35079;52.704;13.814;2022-07-22T08:50:39;4.72;;;4.15;;
49241;SDS011;35079;52.704;13.814;2022-07-22T08:53:09;5.68;;;4.30;;
49241;SDS011;35079;52.704;13.814;2022-07-22T08:55:40;4.47;;;4.07;;
49241;SDS011;35079;52.704;13.814;2022-07-22T08:58:07;4.97;;;3.50;;
49241;SDS011;35079;52.704;13.814;2022-07-22T09:00:33;4.80;;;3.80;;
49241;SDS011;35079;52.704;13.814;2022-07-22T09:02:58;5.40;;;3.88;;
49241;SDS011;35079;52.704;13.814;2022-07-22T09:05:24;6.45;;;3.90;;
49241;SDS011;35079;52.704;13.814;2022-07-22T09:07:58;3.83;;;3.53;;
49241;SDS011;35079;52.704;13.814;2022-07-22T09:10:29;3.90;;;3.50;;
49241;SDS011;35079;52.704;13.814;2022-07-22T09:13:00;3.30;;;3.00;;
49241;SDS011;35079;52.704;13.814;2022-07-22T09:15:33;3.85;;;3.00;;
49241;SDS011;35079;52.704;13.814;2022-07-22T09:18:07;4.35;;;3.05;;
49241;SDS011;35079;52.704;13.814;2022-07-22T09:20:33;3.67;;;3.30;;
49241;SDS011;35079;52.704;13.814;2022-07-22T09:23:00;4.07;;;3.67;;
49241;SDS011;35079;52.704;13.814;2022-07-22T09:25:36;4.35;;;3.55;;
49241;SDS011;35079;52.704;13.814;2022-07-22T09:30:32;4.53;;;3.38;;
49241;SDS011;35079;52.704;13.814;2022-07-22T09:32:59;5.28;;;3.55;;
49241;SDS011;35079;52.704;13.814;2022-07-22T09:35:25;4.78;;;3.80;;
49241;SDS011;35079;52.704;13.814;2022-07-22T09:37:52;4.97;;;4.00;;
49241;SDS011;35079;52.704;13.814;2022-07-22T09:40:21;4.05;;;3.67;;
49241;SDS011;35079;52.704;13.814;2022-07-22T09:42:52;4.40;;;4.00;;
49241;SDS011;35079;52.704;13.814;2022-07-22T09:45:26;4.15;;;3.70;;
49241;SDS011;35079;52.704;13.814;2022-07-22T09:47:54;5.22;;;3.55;;
49241;SDS011;35079;52.704;13.814;2022-07-22T09:50:22;4.20;;;3.80;;
49241;SDS011;35079;52.704;13.814;2022-07-22T09:52:53;3.88;;;3.47;;
49241;SDS011;35079;52.704;13.814;2022-07-22T09:55:21;4.47;;;3.35;;
49241;SDS011;35079;52.704;13.814;2022-07-22T09:57:48;3.92;;;3.35;;
49241;SDS011;35079;52.704;13.814;2022-07-22T10:00:16;6.10;;;3.40;;
49241;SDS011;35079;52.704;13.814;2022-07-22T10:05:24;4.43;;;4.03;;
49241;SDS011;35079;52.704;13.814;2022-07-22T10:07:52;3.70;;;3.38;;
49241;SDS011;35079;52.704;13.814;2022-07-22T10:10:20;4.38;;;3.97;;
49241;SDS011;35079;52.704;13.814;2022-07-22T10:12:48;4.85;;;4.35;;
49241;SDS011;35079;52.704;13.814;2022-07-22T10:15:15;4.35;;;3.95;;
49241;SDS011;35079;52.704;13.814;2022-07-22T10:17:43;4.32;;;3.92;;
49241;SDS011;35079;52.704;13.814;2022-07-22T10:20:10;6.75;;;4.10;;
49241;SDS011;35079;52.704;13.814;2022-07-22T10:25:06;4.68;;;4.22;;
49241;SDS011;35079;52.704;13.814;2022-07-22T10:30:15;4.88;;;4.22;;
49241;SDS011;35079;52.704;13.814;2022-07-22T10:35:53;7.63;;;4.18;;
49241;SDS011;35079;52.704;13.814;2022-07-22T10:38:21;4.75;;;4.30;;
49241;SDS011;35079;52.704;13.814;2022-07-22T10:41:06;4.78;;;4.20;;
49241;SDS011;35079;52.704;13.814;2022-07-22T10:46:07;4.60;;;4.20;;
49241;SDS011;35079;52.704;13.814;2022-07-22T10:53:57;4.45;;;4.00;;
49241;SDS011;35079;52.704;13.814;2022-07-22T10:56:33;3.83;;;3.50;;
49241;SDS011;35079;52.704;13.814;2022-07-22T11:01:39;3.33;;;3.03;;
49241;SDS011;35079;52.704;13.814;2022-07-22T11:04:26;2.70;;;2.50;;
49241;SDS011;35079;52.704;13.814;2022-07-22T11:09:20;2.83;;;2.63;;
49241;SDS011;35079;52.704;13.814;2022-07-22T11:14:22;2.50;;;2.30;;
49241;SDS011;35079;52.704;13.814;2022-07-22T11:17:05;5.40;;;2.45;;
49241;SDS011;35079;52.704;13.814;2022-07-22T11:19:32;2.50;;;2.00;;
49241;SDS011;35079;52.704;13.814;2022-07-22T11:21:59;3.33;;;2.08;;
49241;SDS011;35079;52.704;13.814;2022-07-22T11:24:27;1.95;;;1.85;;
49241;SDS011;35079;52.704;13.814;2022-07-22T11:26:54;2.28;;;2.17;;
49241;SDS011;35079;52.704;13.814;2022-07-22T11:29:28;2.38;;;1.85;;
49241;SDS011;35079;52.704;13.814;2022-07-22T11:31:55;2.25;;;2.15;;
49241;SDS011;35079;52.704;13.814;2022-07-22T11:34:22;2.05;;;1.90;;
49241;SDS011;35079;52.704;13.814;2022-07-22T11:36:49;2.00;;;1.90;;
49241;SDS011;35079;52.704;13.814;2022-07-22T11:39:18;2.47;;;2.33;;
49241;SDS011;35079;52.704;13.814;2022-07-22T11:41:45;1.80;;;1.70;;
49241;SDS011;35079;52.704;13.814;2022-07-22T11:44:11;2.00;;;1.90;;
49241;SDS011;35079;52.704;13.814;2022-07-22T11:46:37;2.20;;;2.00;;
49241;SDS011;35079;52.704;13.814;2022-07-22T11:49:05;2.67;;;1.90;;
49241;SDS011;35079;52.704;13.814;2022-07-22T11:51:32;2.10;;;2.00;;
49241;SDS011;35079;52.704;13.814;2022-07-22T11:53:59;2.40;;;2.00;;
49241;SDS011;35079;52.704;13.814;2022-07-22T11:56:26;3.03;;;2.00;;
49241;SDS011;35079;52.704;13.814;2022-07-22T11:58:53;2.97;;;2.05;;
49241;SDS011;35079;52.704;13.814;2022-07-22T12:01:20;4.78;;;2.22;;
49241;SDS011;35079;52.704;13.814;2022-07-22T12:03:50;3.45;;;2.22;;
49241;SDS011;35079;52.704;13.814;2022-07-22T12:06:18;2.35;;;2.15;;
49241;SDS011;35079;52.704;13.814;2022-07-22T12:11:30;2.10;;;1.98;;
49241;SDS011;35079;52.704;13.814;2022-07-22T12:13:56;3.40;;;2.20;;
49241;SDS011;35079;52.704;13.814;2022-07-22T12:17:01;2.85;;;2.65;;
49241;SDS011;35079;52.704;13.814;2022-07-22T12:19:32;2.72;;;2.53;;
49241;SDS011;35079;52.704;13.814;2022-07-22T12:24:31;2.88;;;2.67;;
49241;SDS011;35079;52.704;13.814;2022-07-22T12:26:59;3.97;;;2.60;;
49241;SDS011;35079;52.704;13.814;2022-07-22T12:32:02;2.40;;;2.17;;
49241;SDS011;35079;52.704;13.814;2022-07-22T12:34:45;3.03;;;2.67;;
49241;SDS011;35079;52.704;13.814;2022-07-22T12:37:17;2.97;;;2.78;;
49241;SDS011;35079;52.704;13.814;2022-07-22T12:42:44;3.50;;;2.67;;
49241;SDS011;35079;52.704;13.814;2022-07-22T12:45:32;2.50;;;2.30;;
49241;SDS011;35079;52.704;13.814;2022-07-22T12:53:22;3.13;;;2.83;;
49241;SDS011;35079;52.704;13.814;2022-07-22T12:55:49;2.95;;;2.75;;
49241;SDS011;35079;52.704;13.814;2022-07-22T12:58:17;3.42;;;3.13;;
49241;SDS011;35079;52.704;13.814;2022-07-22T13:00:47;3.33;;;3.10;;
49241;SDS011;35079;52.704;13.814;2022-07-22T13:03:14;4.05;;;3.13;;
49241;SDS011;35079;52.704;13.814;2022-07-22T13:05:40;2.83;;;2.53;;
49241;SDS011;35079;52.704;13.814;2022-07-22T13:08:06;2.40;;;2.20;;
49241;SDS011;35079;52.704;13.814;2022-07-22T13:10:32;2.75;;;2.55;;
49241;SDS011;35079;52.704;13.814;2022-07-22T13:12:58;2.50;;;2.30;;
49241;SDS011;35079;52.704;13.814;2022-07-22T13:15:23;2.55;;;2.45;;
49241;SDS011;35079;52.704;13.814;2022-07-22T13:17:49;2.45;;;2.28;;
49241;SDS011;35079;52.704;13.814;2022-07-22T13:20:16;2.28;;;2.08;;
49241;SDS011;35079;52.704;13.814;2022-07-22T13:22:43;2.65;;;2.25;;
49241;SDS011;35079;52.704;13.814;2022-07-22T13:25:09;3.38;;;2.20;;
49241;SDS011;35079;52.704;13.814;2022-07-22T13:27:35;2.20;;;2.10;;
49241;SDS011;35079;52.704;13.814;2022-07-22T13:30:01;2.20;;;1.70;;
49241;SDS011;35079;52.704;13.814;2022-07-22T13:32:27;1.83;;;1.73;;
49241;SDS011;35079;52.704;13.814;2022-07-22T13:34:53;2.10;;;2.00;;
49241;SDS011;35079;52.704;13.814;2022-07-22T13:37:19;1.92;;;1.83;;
49241;SDS011;35079;52.704;13.814;2022-07-22T13:39:48;2.40;;;2.20;;
49241;SDS011;35079;52.704;13.814;2022-07-22T13:42:16;2.45;;;2.10;;
49241;SDS011;35079;52.704;13.814;2022-07-22T13:44:47;3.95;;;2.15;;
49241;SDS011;35079;52.704;13.814;2022-07-22T13:47:14;3.00;;;2.30;;
49241;SDS011;35079;52.704;13.814;2022-07-22T13:49:40;2.92;;;2.53;;
49241;SDS011;35079;52.704;13.814;2022-07-22T13:52:06;3.72;;;2.60;;
49241;SDS011;35079;52.704;13.814;2022-07-22T13:54:32;3.88;;;2.20;;
49241;SDS011;35079;52.704;13.814;2022-07-22T13:56:58;5.15;;;2.60;;
49241;SDS011;35079;52.704;13.814;2022-07-22T13:59:24;2.63;;;2.20;;
49241;SDS011;35079;52.704;13.814;2022-07-22T14:01:50;2.55;;;2.28;;
49241;SDS011;35079;52.704;13.814;2022-07-22T14:04:16;2.33;;;2.10;;
49241;SDS011;35079;52.704;13.814;2022-07-22T14:06:42;2.40;;;2.20;;
49241;SDS011;35079;52.704;13.814;2022-07-22T14:09:07;2.90;;;2.30;;
49241;SDS011;35079;52.704;13.814;2022-07-22T14:11:33;2.47;;;2.30;;
49241;SDS011;35079;52.704;13.814;2022-07-22T14:13:58;2.40;;;2.20;;
49241;SDS011;35079;52.704;13.814;2022-07-22T14:16:25;1.90;;;1.80;;
49241;SDS011;35079;52.704;13.814;2022-07-22T14:19:03;2.00;;;1.90;;
49241;SDS011;35079;52.704;13.814;2022-07-22T14:21:30;2.13;;;2.03;;
49241;SDS011;35079;52.704;13.814;2022-07-22T14:23:57;3.85;;;2.28;;
49241;SDS011;35079;52.704;13.814;2022-07-22T14:26:22;2.03;;;1.92;;
49241;SDS011;35079;52.704;13.814;2022-07-22T14:28:48;2.55;;;2.00;;
49241;SDS011;35079;52.704;13.814;2022-07-22T14:31:14;3.10;;;2.40;;
49241;SDS011;35079;52.704;13.814;2022-07-22T14:33:39;2.10;;;2.00;;
49241;SDS011;35079;52.704;13.814;2022-07-22T14:36:05;1.88;;;1.77;;
49241;SDS011;35079;52.704;13.814;2022-07-22T14:38:31;6.32;;;2.00;;
49241;SDS011;35079;52.704;13.814;2022-07-22T14:40:57;1.80;;;1.70;;
49241;SDS011;35079;52.704;13.814;2022-07-22T14:43:22;2.75;;;1.63;;
49241;SDS011;35079;52.704;13.814;2022-07-22T14:45:48;1.60;;;1.50;;
49241;SDS011;35079;52.704;13.814;2022-07-22T14:48:14;1.77;;;1.67;;
49241;SDS011;35079;52.704;13.814;2022-07-22T14:50:39;1.88;;;1.60;;
49241;SDS011;35079;52.704;13.814;2022-07-22T14:53:05;1.42;;;1.33;;
49241;SDS011;35079;52.704;13.814;2022-07-22T14:55:31;1.40;;;1.30;;
49241;SDS011;35079;52.704;13.814;2022-07-22T14:57:56;1.58;;;1.35;;
49241;SDS011;35079;52.704;13.814;2022-07-22T15:00:22;2.63;;;1.38;;
49241;SDS011;35079;52.704;13.814;2022-07-22T15:02:48;1.45;;;1.35;;
49241;SDS011;35079;52.704;13.814;2022-07-22T15:05:13;1.70;;;1.60;;
49241;SDS011;35079;52.704;13.814;2022-07-22T15:07:39;2.15;;;1.80;;
49241;SDS011;35079;52.704;13.814;2022-07-22T15:10:05;1.80;;;1.70;;
49241;SDS011;35079;52.704;13.814;2022-07-22T15:12:32;2.05;;;1.77;;
49241;SDS011;35079;52.704;13.814;2022-07-22T15:14:57;4.53;;;2.10;;
49241;SDS011;35079;52.704;13.814;2022-07-22T15:17:23;1.70;;;1.50;;
49241;SDS011;35079;52.704;13.814;2022-07-22T15:19:49;1.65;;;1.55;;
49241;SDS011;35079;52.704;13.814;2022-07-22T15:22:14;1.80;;;1.70;;
49241;SDS011;35079;52.704;13.814;2022-07-22T15:24:40;2.85;;;1.90;;
49241;SDS011;35079;52.704;13.814;2022-07-22T15:27:07;2.00;;;1.77;;
49241;SDS011;35079;52.704;13.814;2022-07-22T15:29:32;1.58;;;1.48;;
49241;SDS011;35079;52.704;13.814;2022-07-22T15:31:58;2.90;;;1.35;;
49241;SDS011;35079;52.704;13.814;2022-07-22T15:34:24;1.50;;;1.40;;
49241;SDS011;35079;52.704;13.814;2022-07-22T15:36:50;3.00;;;1.60;;
49241;SDS011;35079;52.704;13.814;2022-07-22T15:39:15;4.00;;;1.20;;
49241;SDS011;35079;52.704;13.814;2022-07-22T15:41:41;1.42;;;1.33;;
49241;SDS011;35079;52.704;13.814;2022-07-22T15:44:07;1.20;;;1.20;;